createdAt,value
2023-05-23T00:01:45.433Z,100608.53
2023-05-23T00:04:17.316Z,100608.53
2023-05-23T00:06:50.611Z,100605.84
2023-05-23T00:09:18.059Z,100600.44
2023-05-23T00:11:45.865Z,100604.81
2023-05-23T00:14:14.218Z,100604.81
2023-05-23T00:16:44.141Z,100603.13
2023-05-23T00:19:12.029Z,100599.59
2023-05-23T00:21:39.341Z,100598.59
2023-05-23T00:24:07.424Z,100595.88
2023-05-23T00:26:34.812Z,100599.44
2023-05-23T00:29:02.656Z,100595.88
2023-05-23T00:31:29.926Z,100591.34
2023-05-23T00:33:57.192Z,100586.78
2023-05-23T00:36:24.415Z,100590.34
2023-05-23T00:38:53.254Z,100584.09
2023-05-23T00:41:21.068Z,100586.66
2023-05-23T00:43:48.805Z,100580.56
2023-05-23T00:46:17.166Z,100584.97
2023-05-23T00:48:44.472Z,100587.66
2023-05-23T00:51:11.819Z,100586.78
2023-05-23T00:53:39.111Z,100585.09
2023-05-23T00:56:06.554Z,100584.09
2023-05-23T00:58:33.886Z,100583.25
2023-05-23T01:01:01.894Z,100584.09
2023-05-23T01:03:30.324Z,100583.25
2023-05-23T01:05:57.818Z,100583.25
2023-05-23T01:08:25.173Z,100581.56
2023-05-23T01:10:52.796Z,100577.84
2023-05-23T01:13:43.390Z,100584.09
2023-05-23T01:16:39.359Z,100574.19
2023-05-23T01:19:15.334Z,100569.75
2023-05-23T01:21:44.999Z,100574.31
2023-05-23T01:24:36.857Z,100567.91
2023-05-23T01:27:41.453Z,100569.94
2023-05-23T01:30:10.573Z,100572.47
2023-05-23T01:32:38.234Z,100573.31
2023-05-23T01:35:06.570Z,100572.47
2023-05-23T01:37:33.786Z,100590.34
2023-05-23T01:40:01.228Z,100592.19
2023-05-23T01:42:28.720Z,100577.84
2023-05-23T01:44:59.293Z,100568.06
2023-05-23T01:47:27.556Z,100570.78
2023-05-23T01:49:55.685Z,100581.56
2023-05-23T01:52:23.311Z,100578.88
2023-05-23T01:54:51.028Z,100569.94
2023-05-23T01:57:19.338Z,100567.25
2023-05-23T01:59:46.954Z,100567.25
2023-05-23T02:02:14.472Z,100568.91
2023-05-23T02:04:41.766Z,100565.38
2023-05-23T02:07:09.034Z,100558.31
2023-05-23T02:09:36.311Z,100558.44
2023-05-23T02:12:03.801Z,100547.53
2023-05-23T02:14:31.117Z,100547.53
2023-05-23T02:16:58.374Z,100561.97
2023-05-23T02:19:26.757Z,100556.59
2023-05-23T02:21:54.098Z,100551.38
2023-05-23T02:24:21.388Z,100541.59
2023-05-23T02:26:48.611Z,100546.13
2023-05-23T02:29:16.479Z,100542.44
2023-05-23T02:31:43.754Z,100547.00
2023-05-23T02:34:11.122Z,100536.19
2023-05-23T02:36:39.307Z,100532.50
2023-05-23T02:39:06.773Z,100538.03
2023-05-23T02:41:34.029Z,100534.34
2023-05-23T02:44:01.306Z,100537.19
2023-05-23T02:46:28.533Z,100546.13
2023-05-23T02:48:56.092Z,100548.13
2023-05-23T02:51:23.365Z,100552.53
2023-05-23T02:53:50.614Z,100555.22
2023-05-23T02:56:18.909Z,100559.91
2023-05-23T02:58:46.525Z,100562.47
2023-05-23T03:01:13.745Z,100557.06
2023-05-23T03:03:41.847Z,100552.53
2023-05-23T03:06:10.689Z,100546.28
2023-05-23T03:08:38.077Z,100538.50
2023-05-23T03:11:05.486Z,100530.25
2023-05-23T03:13:32.891Z,100521.16
2023-05-23T03:16:00.356Z,100519.47
2023-05-23T03:18:27.932Z,100524.84
2023-05-23T03:20:55.469Z,100519.78
2023-05-23T03:23:22.987Z,100509.84
2023-05-23T03:25:50.406Z,100507.16
2023-05-23T03:28:17.854Z,100498.91
2023-05-23T03:30:45.229Z,100498.91
2023-05-23T03:33:12.649Z,100501.59
2023-05-23T03:35:40.670Z,100510.69
2023-05-23T03:38:08.208Z,100518.94
2023-05-23T03:40:35.631Z,100522.31
2023-05-23T03:43:06.867Z,100527.72
2023-05-23T03:45:34.420Z,100529.72
2023-05-23T03:48:02.428Z,100531.44
2023-05-23T03:50:29.896Z,100523.47
2023-05-23T03:52:57.395Z,100527.19
2023-05-23T03:55:25.636Z,100514.69
2023-05-23T03:57:53.252Z,100521.09
2023-05-23T04:00:20.955Z,100524.50
2023-05-23T04:02:48.637Z,100535.41
2023-05-23T04:05:20.320Z,100530.84
2023-05-23T04:07:47.751Z,100545.03
2023-05-23T04:10:15.220Z,100550.75
2023-05-23T04:12:43.034Z,100547.03
2023-05-23T04:15:11.499Z,100546.19
2023-05-23T04:17:39.166Z,100538.09
2023-05-23T04:20:10.267Z,100544.50
2023-05-23T04:22:37.663Z,100541.66
2023-05-23T04:25:06.439Z,100542.81
2023-05-23T04:27:34.656Z,100540.28
2023-05-23T04:30:04.008Z,100545.34
2023-05-23T04:32:34.105Z,100550.91
2023-05-23T04:35:02.318Z,100549.06
2023-05-23T04:37:33.124Z,100548.06
2023-05-23T04:40:01.108Z,100548.06
2023-05-23T04:42:29.469Z,100547.38
2023-05-23T04:44:58.236Z,100549.06
2023-05-23T04:47:29.165Z,100551.91
2023-05-23T04:49:57.514Z,100548.22
2023-05-23T04:52:25.590Z,100547.22
2023-05-23T04:54:54.056Z,100543.66
2023-05-23T04:57:23.815Z,100540.97
2023-05-23T04:59:51.032Z,100533.19
2023-05-23T05:02:18.620Z,100540.66
2023-05-23T05:04:46.313Z,100539.34
2023-05-23T05:07:13.706Z,100534.97
2023-05-23T05:09:41.307Z,100545.03
2023-05-23T05:12:08.756Z,100534.25
2023-05-23T05:14:36.053Z,100538.94
2023-05-23T05:17:04.052Z,100539.97
2023-05-23T05:19:31.904Z,100538.63
2023-05-23T05:22:00.290Z,100539.66
2023-05-23T05:24:27.912Z,100547.38
2023-05-23T05:26:55.733Z,100546.66
2023-05-23T05:29:26.730Z,100543.97
2023-05-23T05:31:53.976Z,100542.28
2023-05-23T05:34:21.330Z,100549.69
2023-05-23T05:36:48.568Z,100546.81
2023-05-23T05:39:15.872Z,100541.72
2023-05-23T05:41:43.169Z,100543.59
2023-05-23T05:44:10.668Z,100539.19
2023-05-23T05:46:38.025Z,100544.50
2023-05-23T05:49:05.357Z,100544.38
2023-05-23T05:51:32.631Z,100542.69
2023-05-23T05:53:59.945Z,100547.50
2023-05-23T05:56:28.021Z,100550.13
2023-05-23T05:58:55.271Z,100543.34
2023-05-23T06:01:22.528Z,100540.25
2023-05-23T06:03:50.108Z,100544.00
2023-05-23T06:06:17.621Z,100543.47
2023-05-23T06:08:44.931Z,100547.22
2023-05-23T06:11:12.244Z,100549.94
2023-05-23T06:13:39.530Z,100548.25
2023-05-23T06:16:07.302Z,100544.72
2023-05-23T06:18:34.628Z,100543.88
2023-05-23T06:21:01.829Z,100552.91
2023-05-23T06:23:29.042Z,100553.22
2023-05-23T06:25:56.336Z,100562.91
2023-05-23T06:28:23.553Z,100557.66
2023-05-23T06:30:50.860Z,100558.56
2023-05-23T06:33:18.156Z,100560.50
2023-05-23T06:35:45.381Z,100562.50
2023-05-23T06:38:12.728Z,100559.09
2023-05-23T06:40:40.247Z,100557.41
2023-05-23T06:43:07.590Z,100564.81
2023-05-23T06:45:35.912Z,100561.41
2023-05-23T06:48:03.327Z,100565.94
2023-05-23T06:50:30.652Z,100559.44
2023-05-23T06:52:57.931Z,100557.22
2023-05-23T06:55:25.442Z,100557.56
2023-05-23T06:57:52.799Z,100556.56
2023-05-23T07:00:20.600Z,100564.09
2023-05-23T07:02:50.719Z,100564.69
2023-05-23T07:05:18.182Z,100563.00
2023-05-23T07:07:45.460Z,100564.00
2023-05-23T07:10:13.139Z,100564.41
2023-05-23T07:12:40.370Z,100564.81
2023-05-23T07:15:08.102Z,100564.81
2023-05-23T07:17:36.334Z,100561.97
2023-05-23T07:20:04.719Z,100566.25
2023-05-23T07:22:31.981Z,100561.72
2023-05-23T07:24:59.258Z,100562.13
2023-05-23T07:27:27.827Z,100559.16
2023-05-23T07:29:55.039Z,100566.09
2023-05-23T07:32:22.255Z,100563.38
2023-05-23T07:34:49.496Z,100560.31
2023-05-23T07:37:17.020Z,100569.19
2023-05-23T07:39:44.301Z,100574.47
2023-05-23T07:42:11.557Z,100571.38
2023-05-23T07:44:38.859Z,100567.09
2023-05-23T07:47:06.192Z,100569.97
2023-05-23T07:49:33.406Z,100568.44
2023-05-23T07:52:00.699Z,100560.63
2023-05-23T07:54:28.043Z,100567.97
2023-05-23T07:56:55.384Z,100562.91
2023-05-23T07:59:22.767Z,100567.94
2023-05-23T08:01:52.994Z,100574.34
2023-05-23T08:04:20.382Z,100582.31
2023-05-23T08:07:00.740Z,100585.53
2023-05-23T08:09:32.081Z,100582.19
2023-05-23T08:11:59.361Z,100585.31
2023-05-23T08:14:38.743Z,100589.38
2023-05-23T08:17:15.251Z,100592.25
2023-05-23T08:19:42.732Z,100593.69
2023-05-23T08:22:10.213Z,100597.63
2023-05-23T08:24:37.513Z,100597.16
2023-05-23T08:27:06.616Z,100606.19
2023-05-23T08:29:35.276Z,100597.16
2023-05-23T08:32:02.681Z,100606.94
2023-05-23T08:34:29.950Z,100607.50
2023-05-23T08:36:57.212Z,100605.94
2023-05-23T08:39:24.549Z,100608.47
2023-05-23T08:41:52.422Z,100609.50
2023-05-23T08:44:19.694Z,100609.06
2023-05-23T08:46:49.799Z,100618.28
2023-05-23T08:49:18.841Z,100623.13
2023-05-23T08:51:46.570Z,100623.69
2023-05-23T08:54:22.495Z,100618.63
2023-05-23T08:56:52.251Z,100624.44
2023-05-23T08:59:19.902Z,100622.75
2023-05-23T09:01:48.764Z,100626.84
2023-05-23T09:04:16.163Z,100626.53
2023-05-23T09:06:43.441Z,100626.53
2023-05-23T09:09:10.713Z,100632.25
2023-05-23T09:11:38.301Z,100628.72
2023-05-23T09:14:08.043Z,100630.59
2023-05-23T09:16:35.708Z,100630.31
2023-05-23T09:19:13.453Z,100631.97
2023-05-23T09:21:44.882Z,100627.31
2023-05-23T09:24:15.569Z,100635.94
2023-05-23T09:26:42.791Z,100630.84
2023-05-23T09:29:10.041Z,100633.13
2023-05-23T09:31:37.515Z,100634.25
2023-05-23T09:34:05.163Z,100634.66
2023-05-23T09:36:35.074Z,100636.78
2023-05-23T09:39:06.011Z,100637.91
2023-05-23T09:41:36.067Z,100647.00
2023-05-23T09:44:10.297Z,100649.94
2023-05-23T09:46:38.710Z,100654.31
2023-05-23T09:49:26.512Z,100650.91
2023-05-23T09:52:01.392Z,100656.38
2023-05-23T09:54:28.899Z,100660.19
2023-05-23T09:56:57.225Z,100670.38
2023-05-23T09:59:28.594Z,100659.16
2023-05-23T10:01:58.198Z,100674.50
2023-05-23T10:04:26.567Z,100670.28
2023-05-23T10:07:05.090Z,100666.91
2023-05-23T10:09:36.424Z,100676.53
2023-05-23T10:12:27.841Z,100671.69
2023-05-23T10:15:01.868Z,100672.41
2023-05-23T10:17:56.813Z,100675.22
2023-05-23T10:20:29.408Z,100677.06
2023-05-23T10:22:57.093Z,100677.38
2023-05-23T10:25:24.441Z,100680.63
2023-05-23T10:27:59.540Z,100684.91
2023-05-23T10:30:28.170Z,100675.16
2023-05-23T10:32:56.582Z,100674.97
2023-05-23T10:35:46.497Z,100680.06
2023-05-23T10:38:16.774Z,100675.03
2023-05-23T10:41:13.618Z,100679.88
2023-05-23T10:43:47.119Z,100682.09
2023-05-23T10:46:15.084Z,100688.03
2023-05-23T10:48:44.111Z,100683.28
2023-05-23T10:51:14.321Z,100686.09
2023-05-23T10:53:43.305Z,100677.88
2023-05-23T10:56:14.586Z,100690.06
2023-05-23T10:58:42.183Z,100683.84
2023-05-23T11:01:14.741Z,100686.09
2023-05-23T11:04:05.496Z,100682.41
2023-05-23T11:06:44.588Z,100684.41
2023-05-23T11:09:20.218Z,100689.22
2023-05-23T11:12:03.508Z,100689.03
2023-05-23T11:14:34.784Z,100689.31
2023-05-23T11:17:17.328Z,100687.06
2023-05-23T11:20:06.131Z,100691.03
2023-05-23T11:22:33.704Z,100685.50
2023-05-23T11:25:02.522Z,100690.34
2023-05-23T11:27:36.259Z,100682.69
2023-05-23T11:30:17.570Z,100679.31
2023-05-23T11:32:53.407Z,100691.38
2023-05-23T11:35:21.906Z,100693.91
2023-05-23T11:37:49.445Z,100686.69
2023-05-23T11:40:36.850Z,100687.22
2023-05-23T11:43:09.379Z,100690.09
2023-05-23T11:45:38.274Z,100696.91
2023-05-23T11:48:09.185Z,100704.84
2023-05-23T11:50:48.612Z,100695.50
2023-05-23T11:53:18.656Z,100694.50
2023-05-23T11:55:54.348Z,100699.31
2023-05-23T11:58:22.967Z,100696.94
2023-05-23T12:00:55.230Z,100696.09
2023-05-23T12:03:22.996Z,100701.47
2023-05-23T12:05:50.571Z,100705.16
2023-05-23T12:08:18.070Z,100704.28
2023-05-23T12:10:58.101Z,100708.53
2023-05-23T12:13:26.799Z,100697.22
2023-05-23T12:16:01.450Z,100704.56
2023-05-23T12:18:33.620Z,100707.13
2023-05-23T12:21:06.093Z,100706.28
2023-05-23T12:23:35.204Z,100701.19
2023-05-23T12:26:07.189Z,100709.41
2023-05-23T12:28:43.325Z,100717.34
2023-05-23T12:31:10.740Z,100713.06
2023-05-23T12:33:45.134Z,100718.56
2023-05-23T12:36:32.124Z,100721.53
2023-05-23T12:39:09.186Z,100720.34
2023-05-23T12:41:36.694Z,100710.47
2023-05-23T12:44:04.719Z,100719.22
2023-05-23T12:46:32.135Z,100713.72
2023-05-23T12:48:59.787Z,100721.63
2023-05-23T12:51:27.217Z,100720.66
2023-05-23T12:53:58.151Z,100712.41
2023-05-23T12:56:26.620Z,100714.81
2023-05-23T12:58:54.324Z,100718.50
2023-05-23T13:01:21.703Z,100722.03
2023-05-23T13:03:49.138Z,100723.72
2023-05-23T13:06:16.524Z,100725.41
2023-05-23T13:08:44.136Z,100724.44
2023-05-23T13:11:11.709Z,100719.78
2023-05-23T13:13:39.317Z,100734.81
2023-05-23T13:16:06.928Z,100728.56
2023-05-23T13:18:34.160Z,100726.88
2023-05-23T13:21:01.583Z,100733.97
2023-05-23T13:23:29.544Z,100732.94
2023-05-23T13:25:58.011Z,100731.09
2023-05-23T13:28:25.323Z,100731.97
2023-05-23T13:30:52.887Z,100740.06
2023-05-23T13:33:20.472Z,100735.66
2023-05-23T13:35:49.273Z,100749.13
2023-05-23T13:38:17.913Z,100751.69
2023-05-23T13:40:45.462Z,100741.59
2023-05-23T13:43:12.729Z,100748.81
2023-05-23T13:45:40.199Z,100755.22
2023-05-23T13:48:07.757Z,100752.53
2023-05-23T13:50:35.018Z,100755.22
2023-05-23T13:53:02.394Z,100760.59
2023-05-23T13:55:29.682Z,100761.44
2023-05-23T13:57:56.924Z,100759.75
2023-05-23T14:00:24.371Z,100755.22
2023-05-23T14:02:51.650Z,100764.00
2023-05-23T14:05:19.675Z,100757.06
2023-05-23T14:07:47.441Z,100771.69
2023-05-23T14:10:17.337Z,100770.97
2023-05-23T14:12:44.668Z,100774.06
2023-05-23T14:15:12.246Z,100778.63
2023-05-23T14:17:39.795Z,100770.97
2023-05-23T14:20:07.975Z,100771.22
2023-05-23T14:22:35.340Z,100773.66
2023-05-23T14:25:02.703Z,100779.03
2023-05-23T14:27:29.959Z,100780.78
2023-05-23T14:29:57.257Z,100774.38
2023-05-23T14:32:25.577Z,100778.06
2023-05-23T14:34:53.047Z,100777.06
2023-05-23T14:37:20.339Z,100770.84
2023-05-23T14:39:47.667Z,100789.53
2023-05-23T14:42:14.985Z,100796.47
2023-05-23T14:44:42.488Z,100812.81
2023-05-23T14:47:09.728Z,100792.94
2023-05-23T14:49:36.974Z,100815.34
2023-05-23T14:52:04.390Z,100817.19
2023-05-23T14:54:31.827Z,100821.75
2023-05-23T14:56:59.049Z,100825.41
2023-05-23T14:59:26.389Z,100824.44
2023-05-23T15:01:53.829Z,100839.75
2023-05-23T15:04:21.274Z,100844.28
2023-05-23T15:06:48.587Z,100855.03
2023-05-23T15:09:16.847Z,100846.97
2023-05-23T15:11:46.803Z,100858.91
2023-05-23T15:14:14.134Z,100862.56
2023-05-23T15:16:44.213Z,100859.88
2023-05-23T15:19:11.690Z,100861.72
2023-05-23T15:21:40.699Z,100870.66
2023-05-23T15:24:11.411Z,100868.84
2023-05-23T15:26:38.729Z,100871.53
2023-05-23T15:29:06.135Z,100875.06
2023-05-23T15:31:33.444Z,100892.22
2023-05-23T15:34:01.370Z,100886.81
2023-05-23T15:36:28.634Z,100888.69
2023-05-23T15:38:56.028Z,100883.41
2023-05-23T15:41:23.268Z,100887.38
2023-05-23T15:43:50.490Z,100884.66
2023-05-23T15:46:17.786Z,100889.94
2023-05-23T15:48:45.074Z,100887.38
2023-05-23T15:51:12.526Z,100885.69
2023-05-23T15:53:58.938Z,100886.53
2023-05-23T15:56:28.716Z,100888.25
2023-05-23T15:58:56.765Z,100887.25
2023-05-23T16:01:24.433Z,100889.09
2023-05-23T16:03:51.843Z,100890.78
2023-05-23T16:06:19.230Z,100897.16
2023-05-23T16:08:48.131Z,100896.16
2023-05-23T16:11:15.390Z,100893.22
2023-05-23T16:13:42.650Z,100899.59
2023-05-23T16:16:09.997Z,100899.59
2023-05-23T16:18:37.503Z,100899.59
2023-05-23T16:21:05.090Z,100899.72
2023-05-23T16:23:32.621Z,100901.31
2023-05-23T16:25:59.856Z,100904.97
2023-05-23T16:28:28.912Z,100900.47
2023-05-23T16:30:56.709Z,100909.38
2023-05-23T16:33:24.120Z,100913.19
2023-05-23T16:35:51.387Z,100912.22
2023-05-23T16:38:18.656Z,100914.91
2023-05-23T16:40:46.067Z,100925.69
2023-05-23T16:43:13.614Z,100936.47
2023-05-23T16:45:42.076Z,100939.84
2023-05-23T16:48:09.758Z,100934.72
2023-05-23T16:50:37.127Z,100938.28
2023-05-23T16:53:04.421Z,100937.88
2023-05-23T16:55:31.734Z,100950.34
2023-05-23T16:57:58.985Z,100949.34
2023-05-23T17:00:27.323Z,100949.34
2023-05-23T17:02:54.905Z,100951.06
2023-05-23T17:05:22.377Z,100954.59
2023-05-23T17:07:49.881Z,100951.75
2023-05-23T17:10:19.442Z,100957.13
2023-05-23T17:12:47.733Z,100958.00
2023-05-23T17:15:15.006Z,100964.53
2023-05-23T17:17:42.432Z,100965.13
2023-05-23T17:20:10.510Z,100966.94
2023-05-23T17:22:38.064Z,100964.38
2023-05-23T17:25:06.532Z,100974.44
2023-05-23T17:27:34.975Z,100973.53
2023-05-23T17:30:05.057Z,100982.94
2023-05-23T17:32:33.536Z,100973.53
2023-05-23T17:35:00.832Z,100975.50
2023-05-23T17:37:28.223Z,100986.81
2023-05-23T17:39:57.645Z,100987.50
2023-05-23T17:42:25.705Z,100993.25
2023-05-23T17:44:56.401Z,100992.78
2023-05-23T17:47:23.687Z,100992.16
2023-05-23T17:49:50.945Z,100988.53
2023-05-23T17:52:18.224Z,100993.16
2023-05-23T17:54:45.436Z,100990.28
2023-05-23T17:57:12.728Z,100990.25
2023-05-23T17:59:40.263Z,100995.25
2023-05-23T18:02:07.860Z,100990.88
2023-05-23T18:04:35.616Z,100995.00
2023-05-23T18:07:03.332Z,100994.84
2023-05-23T18:09:30.700Z,100999.09
2023-05-23T18:11:57.925Z,100995.28
2023-05-23T18:14:25.249Z,101003.22
2023-05-23T18:16:52.748Z,101002.25
2023-05-23T18:19:20.211Z,101012.00
2023-05-23T18:21:47.480Z,101017.28
2023-05-23T18:24:14.782Z,101021.66
2023-05-23T18:26:45.115Z,101027.06
2023-05-23T18:29:12.816Z,101023.50
2023-05-23T18:31:40.583Z,101027.91
2023-05-23T18:34:07.869Z,101034.00
2023-05-23T18:36:35.177Z,101036.13
2023-05-23T18:39:02.481Z,101036.25
2023-05-23T18:41:29.772Z,101038.94
2023-05-23T18:43:57.081Z,101051.44
2023-05-23T18:46:25.578Z,101053.00
2023-05-23T18:48:53.264Z,101046.75
2023-05-23T18:51:20.985Z,101057.69
2023-05-23T18:53:48.263Z,101063.06
2023-05-23T18:56:15.810Z,101068.59
2023-05-23T18:58:44.166Z,101072.28
2023-05-23T19:01:13.391Z,101070.28
2023-05-23T19:03:41.353Z,101071.28
2023-05-23T19:06:08.881Z,101074.97
2023-05-23T19:08:36.453Z,101080.22
2023-05-23T19:11:04.793Z,101078.53
2023-05-23T19:13:32.097Z,101082.22
2023-05-23T19:15:59.431Z,101095.53
2023-05-23T19:18:27.402Z,101090.13
2023-05-23T19:20:54.882Z,101097.22
2023-05-23T19:23:22.277Z,101106.47
2023-05-23T19:25:49.602Z,101110.00
2023-05-23T19:28:17.073Z,101109.16
2023-05-23T19:30:44.424Z,101114.38
2023-05-23T19:33:11.796Z,101115.50
2023-05-23T19:35:39.307Z,101121.00
2023-05-23T19:38:06.572Z,101128.28
2023-05-23T19:40:34.141Z,101126.28
2023-05-23T19:43:01.877Z,101128.00
2023-05-23T19:45:29.162Z,101126.78
2023-05-23T19:47:57.970Z,101128.53
2023-05-23T19:50:25.496Z,101135.66
2023-05-23T19:53:00.381Z,101129.81
2023-05-23T19:55:28.072Z,101139.59
2023-05-23T19:57:58.562Z,101141.03
2023-05-23T20:00:31.105Z,101146.75
2023-05-23T20:02:58.407Z,101144.91
2023-05-23T20:05:25.822Z,101149.44
2023-05-23T20:07:53.550Z,101158.69
2023-05-23T20:10:21.041Z,101156.78
2023-05-23T20:12:48.271Z,101158.69
2023-05-23T20:15:19.608Z,101161.06
2023-05-23T20:17:52.854Z,101169.13
2023-05-23T20:20:20.198Z,101180.22
2023-05-23T20:22:47.504Z,101179.88
2023-05-23T20:25:14.792Z,101181.13
2023-05-23T20:27:42.104Z,101185.28
2023-05-23T20:30:10.191Z,101188.09
2023-05-23T20:32:43.131Z,101188.81
2023-05-23T20:35:16.174Z,101199.56
2023-05-23T20:37:44.024Z,101190.06
2023-05-23T20:40:12.993Z,101199.91
2023-05-23T20:42:40.765Z,101192.66
2023-05-23T20:45:09.548Z,101204.72
2023-05-23T20:47:41.199Z,101205.81
2023-05-23T20:50:12.763Z,101202.31
2023-05-23T20:52:44.971Z,101202.56
2023-05-23T20:55:15.419Z,101208.16
2023-05-23T20:57:43.270Z,101204.09
2023-05-23T21:00:14.434Z,101207.28
2023-05-23T21:02:42.853Z,101214.91
2023-05-23T21:05:14.754Z,101206.75
2023-05-23T21:07:42.390Z,101213.91
2023-05-23T21:10:12.981Z,101208.84
2023-05-23T21:12:41.352Z,101213.59
2023-05-23T21:15:10.352Z,101216.75
2023-05-23T21:17:37.597Z,101217.22
2023-05-23T21:20:05.833Z,101220.78
2023-05-23T21:22:33.312Z,101220.78
2023-05-23T21:25:00.625Z,101229.53
2023-05-23T21:27:29.126Z,101219.50
2023-05-23T21:29:57.167Z,101220.34
2023-05-23T21:32:24.506Z,101220.34
2023-05-23T21:34:54.868Z,101228.31
2023-05-23T21:37:22.092Z,101237.25
2023-05-23T21:39:52.779Z,101237.25
2023-05-23T21:42:21.210Z,101231.88
2023-05-23T21:44:48.746Z,101249.59
2023-05-23T21:47:16.013Z,101237.94
2023-05-23T21:49:43.389Z,101241.53
2023-05-23T21:52:10.634Z,101245.06
2023-05-23T21:54:37.869Z,101234.03
2023-05-23T21:57:05.250Z,101239.69
2023-05-23T21:59:35.346Z,101236.13
2023-05-23T22:02:02.747Z,101244.06
2023-05-23T22:04:30.102Z,101244.06
2023-05-23T22:06:57.453Z,101233.19
2023-05-23T22:09:24.790Z,101242.09
2023-05-23T22:11:52.650Z,101248.47
2023-05-23T22:14:20.195Z,101250.19
2023-05-23T22:16:50.124Z,101243.81
2023-05-23T22:19:21.034Z,101249.94
2023-05-23T22:21:48.629Z,101248.19
2023-05-23T22:24:15.858Z,101253.59
2023-05-23T22:26:43.105Z,101246.38
2023-05-23T22:29:10.513Z,101244.41
2023-05-23T22:31:37.823Z,101253.91
2023-05-23T22:34:05.058Z,101248.25
2023-05-23T22:36:33.523Z,101250.84
2023-05-23T22:39:05.369Z,101256.22
2023-05-23T22:41:32.689Z,101256.22
2023-05-23T22:44:00.187Z,101258.91
2023-05-23T22:46:29.333Z,101258.19
2023-05-23T22:48:58.749Z,101254.63
2023-05-23T22:51:27.049Z,101256.94
2023-05-23T22:53:54.615Z,101265.28
2023-05-23T22:56:22.101Z,101253.78
2023-05-23T22:58:49.480Z,101258.91
2023-05-23T23:01:16.842Z,101259.91
2023-05-23T23:03:46.326Z,101261.59
2023-05-23T23:06:13.569Z,101255.50
2023-05-23T23:08:40.889Z,101256.22
2023-05-23T23:11:08.309Z,101265.16
2023-05-23T23:13:35.768Z,101259.75
2023-05-23T23:16:03.194Z,101263.31
2023-05-23T23:18:30.583Z,101254.25
2023-05-23T23:20:58.209Z,101264.03
2023-05-23T23:23:25.585Z,101259.66
2023-05-23T23:25:53.133Z,101254.78
2023-05-23T23:28:20.422Z,101258.44
2023-05-23T23:30:47.704Z,101265.81
2023-05-23T23:33:15.466Z,101264.69
2023-05-23T23:35:45.433Z,101265.56
2023-05-23T23:38:12.940Z,101268.00
2023-05-23T23:40:40.406Z,101264.31
2023-05-23T23:43:07.925Z,101265.28
2023-05-23T23:45:36.423Z,101260.75
2023-05-23T23:48:03.710Z,101260.03
2023-05-23T23:50:31.975Z,101256.06
2023-05-23T23:52:59.282Z,101257.91
2023-05-23T23:55:26.578Z,101259.66
2023-05-23T23:57:53.772Z,101260.75
